createdAt,value
2022-09-07T00:00:09.404Z,101173.81
2022-09-07T00:00:41.500Z,101176.75
2022-09-07T00:01:13.120Z,101176.47
2022-09-07T00:01:45.055Z,101155.13
2022-09-07T00:02:16.604Z,101147.31
2022-09-07T00:02:48.170Z,101161.88
2022-09-07T00:03:20.344Z,101160.00
2022-09-07T00:03:56.051Z,101162.97
2022-09-07T00:04:28.564Z,101161.09
2022-09-07T00:05:00.402Z,101163.25
2022-09-07T00:05:32.303Z,101160.00
2022-09-07T00:06:11.397Z,101157.28
2022-09-07T00:06:42.946Z,101148.38
2022-09-07T00:07:14.668Z,101151.88
2022-09-07T00:07:46.208Z,101138.66
2022-09-07T00:08:20.265Z,101136.78
2022-09-07T00:08:51.907Z,101135.41
2022-09-07T00:09:23.425Z,101134.59
2022-09-07T00:09:55.031Z,101127.59
2022-09-07T00:10:26.636Z,101130.84
2022-09-07T00:11:00.687Z,101131.94
2022-09-07T00:11:32.237Z,101131.44
2022-09-07T00:12:04.040Z,101127.16
2022-09-07T00:12:35.705Z,101125.56
2022-09-07T00:13:07.939Z,101129.88
2022-09-07T00:13:40.990Z,101139.31
2022-09-07T00:14:12.927Z,101140.63
2022-09-07T00:14:44.652Z,101134.19
2022-09-07T00:15:16.280Z,101134.19
2022-09-07T00:15:47.896Z,101139.53
2022-09-07T00:16:23.413Z,101143.34
2022-09-07T00:16:55.059Z,101142.25
2022-09-07T00:17:26.714Z,101136.31
2022-09-07T00:17:59.352Z,101147.09
2022-09-07T00:18:31.645Z,101140.59
2022-09-07T00:19:04.659Z,101143.00
2022-09-07T00:19:36.384Z,101140.84
2022-09-07T00:20:09.330Z,101134.66
2022-09-07T00:20:40.868Z,101145.75
2022-09-07T00:21:12.908Z,101143.34
2022-09-07T00:21:45.344Z,101142.81
2022-09-07T00:22:16.920Z,101144.16
2022-09-07T00:22:48.534Z,101130.38
2022-09-07T00:23:20.083Z,101126.03
2022-09-07T00:23:52.217Z,101129.22
2022-09-07T00:24:23.906Z,101125.66
2022-09-07T00:24:55.456Z,101113.50
2022-09-07T00:25:27.052Z,101123.72
2022-09-07T00:26:05.225Z,101119.72
2022-09-07T00:26:36.828Z,101127.00
2022-09-07T00:27:08.436Z,101121.97
2022-09-07T00:27:40.553Z,101125.72
2022-09-07T00:28:12.200Z,101120.63
2022-09-07T00:28:44.015Z,101115.75
2022-09-07T00:29:15.554Z,101114.72
2022-09-07T00:29:47.414Z,101107.44
2022-09-07T00:30:19.040Z,101109.38
2022-09-07T00:30:50.586Z,101104.75
2022-09-07T00:31:23.602Z,101099.06
2022-09-07T00:31:55.269Z,101099.59
2022-09-07T00:32:26.872Z,101100.91
2022-09-07T00:32:58.476Z,101096.06
2022-09-07T00:33:30.811Z,101092.53
2022-09-07T00:34:03.660Z,101084.94
2022-09-07T00:34:35.213Z,101084.94
2022-09-07T00:35:06.979Z,101087.69
2022-09-07T00:35:42.125Z,101100.91
2022-09-07T00:36:13.775Z,101101.19
2022-09-07T00:36:45.758Z,101102.53
2022-09-07T00:37:17.727Z,101116.56
2022-09-07T00:37:49.301Z,101123.88
2022-09-07T00:38:20.890Z,101110.19
2022-09-07T00:38:52.714Z,101123.47
2022-09-07T00:39:24.377Z,101124.06
2022-09-07T00:39:56.045Z,101127.00
2022-09-07T00:40:27.630Z,101122.16
2022-09-07T00:40:59.365Z,101122.16
2022-09-07T00:41:31.256Z,101115.91
2022-09-07T00:42:03.735Z,101117.28
2022-09-07T00:42:35.488Z,101108.03
2022-09-07T00:43:07.416Z,101105.03
2022-09-07T00:43:41.526Z,101099.59
2022-09-07T00:44:43.955Z,101084.94
2022-09-07T00:45:18.085Z,101083.28
2022-09-07T00:45:49.616Z,101092.19
2022-09-07T00:46:27.197Z,101088.72
2022-09-07T00:46:59.003Z,101097.66
2022-09-07T00:47:44.556Z,101093.66
2022-09-07T00:48:18.480Z,101100.22
2022-09-07T00:48:55.960Z,101104.03
2022-09-07T00:49:27.512Z,101109.72
2022-09-07T00:50:11.216Z,101114.88
2022-09-07T00:50:47.311Z,101106.53
2022-09-07T00:51:26.727Z,101106.22
2022-09-07T00:52:00.650Z,101106.19
2022-09-07T00:52:33.496Z,101105.69
2022-09-07T00:53:09.286Z,101102.44
2022-09-07T00:53:53.750Z,101109.44
2022-09-07T00:54:30.365Z,101116.47
2022-09-07T00:55:06.644Z,101115.38
2022-09-07T00:55:41.146Z,101121.28
2022-09-07T00:56:12.844Z,101128.25
2022-09-07T00:56:45.432Z,101132.56
2022-09-07T00:57:17.067Z,101128.00
2022-09-07T00:57:52.149Z,101139.31
2022-09-07T00:58:23.934Z,101139.00
2022-09-07T00:58:55.761Z,101134.50
2022-09-07T00:59:31.368Z,101129.88
2022-09-07T01:00:04.848Z,101135.31
2022-09-07T01:00:36.651Z,101132.38
2022-09-07T01:01:08.461Z,101132.38
2022-09-07T01:01:40.407Z,101131.56
2022-09-07T01:02:13.209Z,101133.44
2022-09-07T01:02:46.212Z,101127.50
2022-09-07T01:03:23.441Z,101139.03
2022-09-07T01:03:56.799Z,101139.78
2022-09-07T01:04:30.116Z,101143.88
2022-09-07T01:05:09.652Z,101139.00
2022-09-07T01:05:48.178Z,101150.91
2022-09-07T01:06:22.869Z,101153.13
2022-09-07T01:06:55.298Z,101147.25
2022-09-07T01:07:26.810Z,101162.91
2022-09-07T01:07:58.689Z,101158.06
2022-09-07T01:08:30.531Z,101168.88
2022-09-07T01:09:22.913Z,101169.97
2022-09-07T01:09:55.776Z,101164.00
2022-09-07T01:10:33.440Z,101158.53
2022-09-07T01:11:05.202Z,101165.03
2022-09-07T01:11:37.545Z,101161.16
2022-09-07T01:12:09.264Z,101160.09
2022-09-07T01:12:40.836Z,101156.25
2022-09-07T01:13:12.427Z,101158.97
2022-09-07T01:13:45.303Z,101159.50
2022-09-07T01:14:23.545Z,101150.91
2022-09-07T01:14:55.953Z,101151.94
2022-09-07T01:15:39.952Z,101146.78
2022-09-07T01:16:38.936Z,101139.50
2022-09-07T01:17:19.136Z,101130.84
2022-09-07T01:17:50.604Z,101137.56
2022-09-07T01:18:33.397Z,101128.34
2022-09-07T01:19:13.669Z,101117.53
2022-09-07T01:19:55.889Z,101119.66
2022-09-07T01:20:50.433Z,101114.53
2022-09-07T01:21:25.569Z,101106.16
2022-09-07T01:22:18.360Z,101112.91
2022-09-07T01:23:01.954Z,101104.88
2022-09-07T01:23:45.604Z,101106.22
2022-09-07T01:24:46.685Z,101106.19
2022-09-07T01:25:39.956Z,101111.91
2022-09-07T01:26:23.104Z,101104.06
2022-09-07T01:27:25.287Z,101107.03
2022-09-07T01:28:14.073Z,101111.84
2022-09-07T01:28:49.595Z,101114.53
2022-09-07T01:29:30.021Z,101099.97
2022-09-07T01:30:03.275Z,101111.25
2022-09-07T01:30:39.464Z,101104.75
2022-09-07T01:31:25.772Z,101097.19
2022-09-07T01:32:09.292Z,101101.53
2022-09-07T01:32:59.002Z,101095.31
2022-09-07T01:33:47.751Z,101087.97
2022-09-07T01:34:25.403Z,101089.06
2022-09-07T01:34:57.041Z,101083.09
2022-09-07T01:35:55.634Z,101085.53
2022-09-07T01:36:55.859Z,101080.97
2022-09-07T01:37:32.252Z,101084.22
2022-09-07T01:38:35.807Z,101092.88
2022-09-07T01:39:08.229Z,101090.75
2022-09-07T01:39:57.256Z,101096.94
2022-09-07T01:40:42.393Z,101099.41
2022-09-07T01:41:23.439Z,101096.16
2022-09-07T01:41:58.827Z,101104.78
2022-09-07T01:42:38.578Z,101104.75
2022-09-07T01:43:13.589Z,101101.59
2022-09-07T01:44:00.498Z,101105.88
2022-09-07T01:44:39.806Z,101106.16
2022-09-07T01:45:13.984Z,101109.69
2022-09-07T01:45:45.847Z,101108.66
2022-09-07T01:46:21.939Z,101111.91
2022-09-07T01:47:07.698Z,101108.47
2022-09-07T01:47:42.835Z,101105.25
2022-09-07T01:48:16.668Z,101110.25
2022-09-07T01:48:50.756Z,101109.66
2022-09-07T01:49:29.599Z,101118.31
2022-09-07T01:50:21.626Z,101112.88
2022-09-07T01:50:59.287Z,101109.38
2022-09-07T01:51:33.374Z,101107.50
2022-09-07T01:52:18.762Z,101109.13
2022-09-07T01:53:00.877Z,101116.13
2022-09-07T01:53:39.804Z,101113.41
2022-09-07T01:54:17.040Z,101115.03
2022-09-07T01:54:52.681Z,101115.28
2022-09-07T01:55:26.977Z,101117.72
2022-09-07T01:56:05.627Z,101125.81
2022-09-07T01:56:41.828Z,101119.31
2022-09-07T01:57:19.022Z,101115.47
2022-09-07T01:58:27.252Z,101118.78
2022-09-07T01:59:04.995Z,101124.69
2022-09-07T01:59:44.022Z,101120.16
2022-09-07T02:00:18.718Z,101123.16
2022-09-07T02:01:04.687Z,101118.31
2022-09-07T02:01:52.623Z,101128.59
2022-09-07T02:02:29.688Z,101123.19
2022-09-07T02:03:41.549Z,101121.56
2022-09-07T02:04:18.553Z,101118.34
2022-09-07T02:05:02.108Z,101113.47
2022-09-07T02:05:47.019Z,101109.13
2022-09-07T02:06:27.231Z,101112.28
2022-09-07T02:07:01.423Z,101101.78
2022-09-07T02:07:43.209Z,101105.78
2022-09-07T02:08:41.175Z,101095.50
2022-09-07T02:09:58.320Z,101098.72
2022-09-07T02:10:40.497Z,101096.53
2022-09-07T02:11:19.597Z,101096.00
2022-09-07T02:11:51.585Z,101099.25
2022-09-07T02:12:48.199Z,101092.88
2022-09-07T02:13:19.704Z,101100.38
2022-09-07T02:14:04.060Z,101097.94
2022-09-07T02:14:38.694Z,101091.72
2022-09-07T02:15:16.342Z,101088.91
2022-09-07T02:16:18.845Z,101090.09
2022-09-07T02:17:00.784Z,101086.78
2022-09-07T02:17:34.673Z,101085.78
2022-09-07T02:18:07.794Z,101084.69
2022-09-07T02:18:45.106Z,101089.53
2022-09-07T02:19:19.240Z,101086.59
2022-09-07T02:19:54.294Z,101080.13
2022-09-07T02:20:31.027Z,101083.56
2022-09-07T02:21:03.365Z,101085.41
2022-09-07T02:21:38.541Z,101076.50
2022-09-07T02:22:15.227Z,101080.78
2022-09-07T02:22:49.907Z,101074.78
2022-09-07T02:23:34.391Z,101075.09
2022-09-07T02:24:12.900Z,101079.34
2022-09-07T02:24:49.884Z,101066.44
2022-09-07T02:25:23.931Z,101069.69
2022-09-07T02:26:04.457Z,101062.19
2022-09-07T02:26:39.410Z,101055.19
2022-09-07T02:27:19.044Z,101063.00
2022-09-07T02:27:55.434Z,101066.81
2022-09-07T02:28:33.302Z,101058.69
2022-09-07T02:29:05.376Z,101068.41
2022-09-07T02:29:38.138Z,101065.63
2022-09-07T02:30:10.502Z,101068.88
2022-09-07T02:30:42.533Z,101067.84
2022-09-07T02:31:14.507Z,101063.56
2022-09-07T02:31:47.329Z,101066.84
2022-09-07T02:32:19.104Z,101056.06
2022-09-07T02:32:50.990Z,101063.34
2022-09-07T02:33:23.324Z,101054.44
2022-09-07T02:33:55.197Z,101060.34
2022-09-07T02:34:26.896Z,101056.03
2022-09-07T02:34:58.416Z,101053.34
2022-09-07T02:35:30.092Z,101055.50
2022-09-07T02:36:02.392Z,101049.69
2022-09-07T02:36:39.463Z,101052.63
2022-09-07T02:37:11.180Z,101057.50
2022-09-07T02:37:43.767Z,101055.66
2022-09-07T02:38:15.653Z,101053.00
2022-09-07T02:38:47.167Z,101051.38
2022-09-07T02:39:18.796Z,101058.41
2022-09-07T02:39:50.674Z,101061.13
2022-09-07T02:40:22.505Z,101058.47
2022-09-07T02:40:57.529Z,101058.97
2022-09-07T02:41:38.410Z,101057.41
2022-09-07T02:42:15.761Z,101062.78
2022-09-07T02:42:48.096Z,101054.13
2022-09-07T02:43:20.818Z,101056.53
2022-09-07T02:43:52.369Z,101055.22
2022-09-07T02:44:27.652Z,101054.63
2022-09-07T02:45:00.170Z,101058.88
2022-09-07T02:45:58.258Z,101059.97
2022-09-07T02:46:45.068Z,101056.13
2022-09-07T02:47:36.995Z,101058.50
2022-09-07T02:48:15.802Z,101064.22
2022-09-07T02:48:51.336Z,101065.28
2022-09-07T02:49:44.492Z,101070.09
2022-09-07T02:50:29.366Z,101067.38
2022-09-07T02:51:25.349Z,101070.28
2022-09-07T02:52:20.461Z,101066.44
2022-09-07T02:52:57.994Z,101060.75
2022-09-07T02:53:36.459Z,101059.75
2022-09-07T02:54:44.948Z,101051.69
2022-09-07T02:56:24.702Z,101057.00
2022-09-07T02:57:18.457Z,101054.28
2022-09-07T02:58:05.031Z,101061.25
2022-09-07T02:58:50.593Z,101052.34
2022-09-07T02:59:45.148Z,101055.81
2022-09-07T03:00:20.891Z,101058.00
2022-09-07T03:01:14.430Z,101058.03
2022-09-07T03:01:46.084Z,101052.94
2022-09-07T03:02:30.998Z,101058.63
2022-09-07T03:03:18.080Z,101058.63
2022-09-07T03:04:10.993Z,101053.25
2022-09-07T03:04:51.440Z,101058.09
2022-09-07T03:05:46.051Z,101062.38
2022-09-07T03:06:24.362Z,101056.22
2022-09-07T03:07:03.389Z,101059.25
2022-09-07T03:07:50.120Z,101050.66
2022-09-07T03:08:25.334Z,101058.72
2022-09-07T03:08:59.145Z,101053.34
2022-09-07T03:09:35.363Z,101050.91
2022-09-07T03:10:07.980Z,101048.25
2022-09-07T03:10:40.660Z,101051.75
2022-09-07T03:11:13.173Z,101043.66
2022-09-07T03:11:44.780Z,101038.84
2022-09-07T03:12:16.760Z,101046.34
2022-09-07T03:12:49.634Z,101050.03
2022-09-07T03:13:24.468Z,101044.66
2022-09-07T03:14:19.627Z,101048.47
2022-09-07T03:14:51.181Z,101044.09
2022-09-07T03:15:25.603Z,101045.72
2022-09-07T03:15:57.713Z,101049.72
2022-09-07T03:16:29.311Z,101046.22
2022-09-07T03:17:01.537Z,101042.97
2022-09-07T03:17:33.061Z,101036.50
2022-09-07T03:18:04.829Z,101046.75
2022-09-07T03:18:36.353Z,101037.03
2022-09-07T03:19:08.066Z,101039.16
2022-09-07T03:19:39.741Z,101042.97
2022-09-07T03:20:11.490Z,101033.03
2022-09-07T03:20:43.137Z,101033.84
2022-09-07T03:21:14.688Z,101040.84
2022-09-07T03:21:46.430Z,101041.91
2022-09-07T03:22:17.963Z,101045.41
2022-09-07T03:22:51.209Z,101054.06
2022-09-07T03:23:23.016Z,101055.41
2022-09-07T03:23:55.078Z,101046.75
2022-09-07T03:24:26.630Z,101050.72
2022-09-07T03:24:58.175Z,101054.56
2022-09-07T03:25:29.725Z,101048.34
2022-09-07T03:26:01.302Z,101046.16
2022-09-07T03:26:33.045Z,101054.22
2022-09-07T03:27:04.665Z,101048.34
2022-09-07T03:27:36.244Z,101046.16
2022-09-07T03:28:07.804Z,101053.41
2022-09-07T03:28:39.462Z,101048.22
2022-09-07T03:29:11.092Z,101045.53
2022-09-07T03:29:42.682Z,101051.38
2022-09-07T03:30:14.537Z,101046.25
2022-09-07T03:30:47.487Z,101039.56
2022-09-07T03:31:19.988Z,101033.97
2022-09-07T03:31:51.574Z,101038.47
2022-09-07T03:32:23.122Z,101031.53
2022-09-07T03:32:54.692Z,101035.91
2022-09-07T03:33:26.283Z,101034.16
2022-09-07T03:33:57.985Z,101026.56
2022-09-07T03:34:29.545Z,101027.59
2022-09-07T03:35:02.104Z,101024.91
2022-09-07T03:35:33.632Z,101028.63
2022-09-07T03:36:06.433Z,101024.22
2022-09-07T03:36:38.240Z,101020.16
2022-09-07T03:37:09.830Z,101026.34
2022-09-07T03:37:41.779Z,101014.69
2022-09-07T03:38:13.356Z,101020.28
2022-09-07T03:38:45.291Z,101017.03
2022-09-07T03:39:20.773Z,101018.59
2022-09-07T03:39:52.631Z,101011.00
2022-09-07T03:40:24.233Z,101016.72
2022-09-07T03:41:03.393Z,101015.41
2022-09-07T03:41:34.953Z,101012.75
2022-09-07T03:42:06.636Z,101021.41
2022-09-07T03:42:38.762Z,101020.56
2022-09-07T03:43:10.316Z,101020.88
2022-09-07T03:43:42.172Z,101017.72
2022-09-07T03:44:13.707Z,101019.81
2022-09-07T03:44:45.311Z,101012.31
2022-09-07T03:45:17.007Z,101015.59
2022-09-07T03:45:48.529Z,101022.00
2022-09-07T03:46:20.801Z,101014.22
2022-09-07T03:46:52.386Z,101017.63
2022-09-07T03:47:23.992Z,101009.50
2022-09-07T03:47:55.644Z,101017.59
2022-09-07T03:48:30.202Z,101009.25
2022-09-07T03:49:01.992Z,101011.44
2022-09-07T03:49:33.498Z,101019.78
2022-09-07T03:50:05.968Z,101019.78
2022-09-07T03:50:37.489Z,101017.59
2022-09-07T03:51:10.926Z,101019.22
2022-09-07T03:51:42.473Z,101012.75
2022-09-07T03:52:14.036Z,101009.50
2022-09-07T03:52:45.566Z,101015.44
2022-09-07T03:53:17.075Z,101012.16
2022-09-07T03:53:48.745Z,101016.72
2022-09-07T03:54:20.280Z,101016.13
2022-09-07T03:54:51.968Z,101016.38
2022-09-07T03:55:23.564Z,101010.94
2022-09-07T03:56:03.155Z,101012.00
2022-09-07T03:56:34.857Z,101011.88
2022-09-07T03:57:06.450Z,101012.41
2022-09-07T03:57:37.945Z,101007.84
2022-09-07T03:58:09.467Z,101002.75
2022-09-07T03:58:41.119Z,101008.44
2022-09-07T03:59:12.635Z,101009.25
2022-09-07T03:59:44.190Z,101008.69
2022-09-07T04:00:16.183Z,101012.50
2022-09-07T04:00:47.702Z,100999.50
2022-09-07T04:01:22.578Z,101002.19
2022-09-07T04:01:54.170Z,101002.44
2022-09-07T04:02:26.144Z,100997.88
2022-09-07T04:02:57.769Z,101001.63
2022-09-07T04:03:29.300Z,100999.00
2022-09-07T04:04:02.868Z,101002.72
2022-09-07T04:04:34.504Z,101004.03
2022-09-07T04:05:06.306Z,101005.66
2022-09-07T04:05:37.834Z,100995.75
2022-09-07T04:06:09.908Z,100996.25
2022-09-07T04:06:41.564Z,100995.41
2022-09-07T04:07:14.138Z,100997.19
2022-09-07T04:07:48.207Z,101000.63
2022-09-07T04:08:19.759Z,100995.50
2022-09-07T04:08:51.452Z,100997.13
2022-09-07T04:09:22.965Z,100995.81
2022-09-07T04:09:54.510Z,100999.47
2022-09-07T04:10:26.038Z,100998.09
2022-09-07T04:10:59.169Z,101001.09
2022-09-07T04:11:31.636Z,100997.84
2022-09-07T04:12:03.619Z,101005.91
2022-09-07T04:12:35.156Z,101001.13
2022-09-07T04:13:08.029Z,101002.75
2022-09-07T04:13:39.910Z,101000.28
2022-09-07T04:14:11.690Z,101010.78
2022-09-07T04:14:43.568Z,101002.44
2022-09-07T04:15:15.236Z,101012.34
2022-09-07T04:15:49.908Z,101014.88
2022-09-07T04:16:25.744Z,101014.88
2022-09-07T04:16:57.469Z,101016.19
2022-09-07T04:17:29.055Z,101017.00
2022-09-07T04:18:01.000Z,101019.44
2022-09-07T04:18:32.562Z,101015.50
2022-09-07T04:19:04.541Z,101019.75
2022-09-07T04:19:36.057Z,101026.75
2022-09-07T04:20:08.199Z,101024.63
2022-09-07T04:20:39.912Z,101026.25
2022-09-07T04:21:11.828Z,101030.19
2022-09-07T04:21:44.603Z,101027.25
2022-09-07T04:22:16.159Z,101024.31
2022-09-07T04:22:53.656Z,101025.94
2022-09-07T04:23:25.840Z,101015.84
2022-09-07T04:23:58.059Z,101010.22
2022-09-07T04:24:29.684Z,101014.03
2022-09-07T04:25:01.212Z,101011.84
2022-09-07T04:25:32.988Z,101009.97
2022-09-07T04:26:04.608Z,101010.78
2022-09-07T04:26:37.104Z,101011.28
2022-09-07T04:27:08.686Z,101010.78
2022-09-07T04:27:40.209Z,101002.72
2022-09-07T04:28:11.762Z,101016.16
2022-09-07T04:28:43.429Z,101013.47
2022-09-07T04:29:14.996Z,101009.72
2022-09-07T04:29:47.447Z,101010.78
2022-09-07T04:30:18.978Z,101008.59
2022-09-07T04:30:50.641Z,101004.88
2022-09-07T04:31:23.495Z,101012.41
2022-09-07T04:31:55.092Z,101011.13
2022-09-07T04:32:26.701Z,101017.88
2022-09-07T04:32:58.205Z,101014.63
2022-09-07T04:33:33.236Z,101021.06
2022-09-07T04:34:06.405Z,101020.78
2022-09-07T04:34:38.004Z,101016.19
2022-09-07T04:35:10.162Z,101020.78
2022-09-07T04:35:42.531Z,101019.50
2022-09-07T04:36:14.812Z,101012.50
2022-09-07T04:36:46.404Z,101018.94
2022-09-07T04:37:18.641Z,101023.31
2022-09-07T04:37:50.260Z,101028.13
2022-09-07T04:38:21.778Z,101020.16
2022-09-07T04:39:00.769Z,101015.50
2022-09-07T04:39:32.369Z,101027.22
2022-09-07T04:40:05.495Z,101028.78
2022-09-07T04:40:37.282Z,101026.16
2022-09-07T04:41:18.818Z,101022.41
2022-09-07T04:41:52.704Z,101025.16
2022-09-07T04:42:24.235Z,101020.31
2022-09-07T04:42:55.779Z,101028.44
2022-09-07T04:43:28.709Z,101020.88
2022-09-07T04:44:01.632Z,101023.63
2022-09-07T04:44:33.212Z,101021.47
2022-09-07T04:45:05.465Z,101029.00
2022-09-07T04:45:37.611Z,101026.25
2022-09-07T04:46:19.603Z,101030.03
2022-09-07T04:46:51.247Z,101030.84
2022-09-07T04:47:22.882Z,101028.91
2022-09-07T04:47:54.401Z,101030.53
2022-09-07T04:48:25.967Z,101031.09
2022-09-07T04:48:59.116Z,101030.03
2022-09-07T04:49:30.647Z,101031.66
2022-09-07T04:50:02.566Z,101026.25
2022-09-07T04:50:34.588Z,101021.13
2022-09-07T04:51:07.956Z,101028.91
2022-09-07T04:51:42.535Z,101022.41
2022-09-07T04:52:14.156Z,101026.72
2022-09-07T04:52:45.778Z,101026.78
2022-09-07T04:53:17.694Z,101021.59
2022-09-07T04:53:50.569Z,101028.31
2022-09-07T04:54:22.367Z,101029.16
2022-09-07T04:54:53.953Z,101025.09
2022-09-07T04:55:25.853Z,101023.16
2022-09-07T04:56:00.471Z,101018.00
2022-09-07T04:56:32.649Z,101022.84
2022-09-07T04:57:04.441Z,101022.34
2022-09-07T04:57:36.032Z,101025.59
2022-09-07T04:58:07.634Z,101018.66
2022-09-07T04:58:39.176Z,101027.28
2022-09-07T04:59:10.745Z,101022.97
2022-09-07T04:59:42.373Z,101022.41
2022-09-07T05:00:14.779Z,101024.53
2022-09-07T05:00:46.435Z,101019.34
2022-09-07T05:01:20.588Z,101025.06
2022-09-07T05:01:52.225Z,101029.94
2022-09-07T05:02:23.841Z,101029.09
2022-09-07T05:02:55.467Z,101025.59
2022-09-07T05:03:29.108Z,101030.72
2022-09-07T05:04:01.538Z,101029.97
2022-09-07T05:04:35.784Z,101026.78
2022-09-07T05:05:07.971Z,101035.09
2022-09-07T05:05:39.690Z,101026.25
2022-09-07T05:06:11.634Z,101024.94
2022-09-07T05:06:43.212Z,101030.03
2022-09-07T05:07:14.759Z,101029.22
2022-09-07T05:07:46.408Z,101030.53
2022-09-07T05:08:18.049Z,101030.28
2022-09-07T05:08:52.125Z,101032.75
2022-09-07T05:09:23.631Z,101029.00
2022-09-07T05:09:55.243Z,101036.56
2022-09-07T05:10:26.744Z,101037.94
2022-09-07T05:10:58.293Z,101035.31
2022-09-07T05:11:30.258Z,101028.06
2022-09-07T05:12:02.167Z,101028.63
2022-09-07T05:12:33.691Z,101021.09
2022-09-07T05:13:05.339Z,101025.88
2022-09-07T05:13:37.202Z,101023.41
2022-09-07T05:14:10.055Z,101025.38
2022-09-07T05:14:41.725Z,101021.31
2022-09-07T05:15:13.467Z,101016.09
2022-09-07T05:15:45.158Z,101017.16
2022-09-07T05:16:19.567Z,101018.03
2022-09-07T05:16:51.306Z,101014.28
2022-09-07T05:17:23.054Z,101020.50
2022-09-07T05:17:54.603Z,101009.97
2022-09-07T05:18:26.988Z,101011.53
2022-09-07T05:19:01.418Z,101015.03
2022-09-07T05:19:33.325Z,101018.75
2022-09-07T05:20:05.663Z,101015.81
2022-09-07T05:20:37.761Z,101012.59
2022-09-07T05:21:20.520Z,101011.59
2022-09-07T05:21:52.139Z,101011.34
2022-09-07T05:22:25.210Z,101015.03
2022-09-07T05:22:59.665Z,101015.72
2022-09-07T05:23:31.386Z,101010.59
2022-09-07T05:24:04.483Z,101015.19
2022-09-07T05:24:36.860Z,101017.84
2022-09-07T05:25:09.616Z,101017.06
2022-09-07T05:25:45.497Z,101019.78
2022-09-07T05:26:17.868Z,101018.44
2022-09-07T05:26:49.447Z,101018.44
2022-09-07T05:27:21.008Z,101018.44
2022-09-07T05:27:52.668Z,101019.03
2022-09-07T05:28:24.231Z,101021.59
2022-09-07T05:30:04.322Z,101021.34
2022-09-07T05:31:29.124Z,101013.47
2022-09-07T05:32:00.910Z,101019.47
2022-09-07T05:32:32.610Z,101014.91
2022-09-07T05:33:04.286Z,101012.72
2022-09-07T05:34:59.257Z,101022.00
2022-09-07T05:35:31.479Z,101019.56
2022-09-07T05:36:04.022Z,101030.06
2022-09-07T05:36:36.008Z,101016.91
2022-09-07T05:37:07.666Z,101017.47
2022-09-07T05:37:39.347Z,101023.97
2022-09-07T05:38:10.887Z,101029.59
2022-09-07T05:38:42.944Z,101028.31
2022-09-07T05:39:14.486Z,101028.78
2022-09-07T05:39:46.137Z,101028.19
2022-09-07T05:40:18.252Z,101031.94
2022-09-07T05:40:49.913Z,101026.31
2022-09-07T05:41:25.884Z,101026.06
2022-09-07T05:41:57.428Z,101030.66
2022-09-07T05:42:29.011Z,101035.72
2022-09-07T05:43:00.534Z,101033.53
2022-09-07T05:43:32.060Z,101038.44
2022-09-07T05:44:56.105Z,101034.75
2022-09-07T05:45:27.833Z,101036.81
2022-09-07T05:45:59.479Z,101039.00
2022-09-07T05:46:31.192Z,101030.91
2022-09-07T05:47:02.743Z,101037.88
2022-09-07T05:47:34.391Z,101040.28
2022-09-07T05:48:05.961Z,101036.31
2022-09-07T05:48:37.643Z,101041.19
2022-09-07T05:49:09.649Z,101036.81
2022-09-07T05:49:41.204Z,101037.31
2022-09-07T05:50:12.724Z,101038.44
2022-09-07T05:50:51.722Z,101041.66
2022-09-07T05:51:23.360Z,101043.53
2022-09-07T05:51:54.944Z,101047.88
2022-09-07T05:52:26.475Z,101045.97
2022-09-07T05:52:59.074Z,101044.34
2022-09-07T05:53:30.867Z,101047.59
2022-09-07T05:54:02.384Z,101043.28
2022-09-07T05:54:33.993Z,101049.72
2022-09-07T05:55:28.273Z,101045.66
2022-09-07T05:56:05.147Z,101048.66
2022-09-07T05:56:38.659Z,101042.19
2022-09-07T05:57:11.751Z,101043.00
2022-09-07T05:57:43.354Z,101050.31
2022-09-07T05:58:14.902Z,101043.31
2022-09-07T05:58:49.268Z,101052.66
2022-09-07T05:59:20.790Z,101053.47
2022-09-07T05:59:52.320Z,101051.34
2022-09-07T06:00:23.834Z,101042.72
2022-09-07T06:01:05.680Z,101050.78
2022-09-07T06:01:37.571Z,101048.91
2022-09-07T06:02:19.052Z,101050.22
2022-09-07T06:02:50.794Z,101049.16
2022-09-07T06:03:22.521Z,101053.00
2022-09-07T06:03:54.108Z,101046.25
2022-09-07T06:04:25.862Z,101051.94
2022-09-07T06:04:57.394Z,101048.22
2022-09-07T06:05:28.933Z,101045.25
2022-09-07T06:06:11.650Z,101048.28
2022-09-07T06:06:47.817Z,101058.53
2022-09-07T06:07:30.725Z,101053.38
2022-09-07T06:08:02.790Z,101057.19
2022-09-07T06:08:35.922Z,101057.53
2022-09-07T06:09:08.000Z,101058.34
2022-09-07T06:10:44.201Z,101061.56
2022-09-07T06:11:18.605Z,101061.06
2022-09-07T06:11:50.437Z,101065.03
2022-09-07T06:12:21.974Z,101062.81
2022-09-07T06:12:53.674Z,101065.56
2022-09-07T06:13:25.625Z,101061.84
2022-09-07T06:13:57.360Z,101064.00
2022-09-07T06:14:28.877Z,101065.09
2022-09-07T06:15:01.587Z,101061.31
2022-09-07T06:15:34.064Z,101061.31
2022-09-07T06:16:07.507Z,101062.38
2022-09-07T06:16:39.196Z,101064.31
2022-09-07T06:17:10.771Z,101067.59
2022-09-07T06:17:42.272Z,101067.78
2022-09-07T06:18:13.839Z,101067.53
2022-09-07T06:18:48.356Z,101063.00
2022-09-07T06:19:19.887Z,101067.88
2022-09-07T06:19:51.587Z,101066.16
2022-09-07T06:20:23.085Z,101065.34
2022-09-07T06:20:54.646Z,101068.25
2022-09-07T06:21:26.165Z,101068.25
2022-09-07T06:21:57.787Z,101066.66
2022-09-07T06:22:31.229Z,101064.00
2022-09-07T06:23:03.043Z,101067.53
2022-09-07T06:23:35.621Z,101072.16
2022-09-07T06:24:07.481Z,101068.69
2022-09-07T06:24:39.007Z,101068.97
2022-09-07T06:25:10.637Z,101077.03
2022-09-07T06:25:48.699Z,101076.97
2022-09-07T06:26:20.388Z,101076.41
2022-09-07T06:26:52.252Z,101073.25
2022-09-07T06:27:23.918Z,101078.03
2022-09-07T06:27:55.482Z,101072.56
2022-09-07T06:28:37.680Z,101068.84
2022-09-07T06:29:10.105Z,101071.66
2022-09-07T06:29:41.661Z,101073.25
2022-09-07T06:30:13.403Z,101075.22
2022-09-07T06:30:45.001Z,101068.22
2022-09-07T06:31:18.630Z,101075.81
2022-09-07T06:33:21.979Z,101072.34
2022-09-07T06:33:54.901Z,101074.88
2022-09-07T06:34:26.464Z,101070.09
2022-09-07T06:34:57.980Z,101070.97
2022-09-07T06:35:29.492Z,101068.00
2022-09-07T06:36:03.670Z,101064.63
2022-09-07T06:36:35.202Z,101064.28
2022-09-07T06:37:06.763Z,101060.59
2022-09-07T06:37:38.724Z,101067.22
2022-09-07T06:38:10.509Z,101062.38
2022-09-07T06:38:42.814Z,101065.59
2022-09-07T06:39:14.698Z,101068.28
2022-09-07T06:39:46.337Z,101066.41
2022-09-07T06:40:18.022Z,101070.03
2022-09-07T06:40:49.600Z,101067.91
2022-09-07T06:42:14.063Z,101071.78
2022-09-07T06:42:48.620Z,101072.69
2022-09-07T06:43:21.064Z,101063.53
2022-09-07T06:43:53.965Z,101071.94
2022-09-07T06:44:25.573Z,101067.38
2022-09-07T06:44:57.490Z,101060.91
2022-09-07T06:45:30.337Z,101069.59